Latest Weather Observations for Hughenden

IDQ60801

Issued at 4:02 pm EST Saturday 5 December 2020 (issued every 10 minutes, with the page automatically refreshed every 10 minutes)

About weather observations | Map of weather stations | Latest weather observations for QLD | Other Formats
Station Details ID: 030022 Name: HUGHENDEN AIRPORT Lat: -20.82 Lon: 144.23 Height: 316.4 m
Data from the previous 72 hours. | See also: Recent months at Hughenden
Date/Time
EST
Temp
°C
App
Temp
°C
Dew
Point
°C
Rel
Hum
%
Delta-T
°C
Wind Press
QNH
hPa
Press
MSL
hPa
Rain since
9am
mm
Dir  Spd
km/h
Gust
km/h
Spd
kts
Gust
kts
05/04:00pm 40.5 35.5 -4.0 6 21.7 N 13 20 7 11 1007.3 1004.8 0.0
05/03:30pm 40.3 36.1 -4.1 6 21.6 ESE 9 19 5 10 1007.7 1005.2 0.0
05/03:00pm 40.4 34.7 -4.1 6 21.7 ENE 17 28 9 15 1008.1 1005.6 0.0
05/02:30pm 40.1 36.4 -4.3 6 21.5 NNW 6 17 3 9 1008.5 1006.0 0.0
05/02:00pm 39.8 34.4 -4.5 6 21.4 NE 15 24 8 13 1009.0 1006.6 0.0
05/01:30pm 39.7 35.4 -4.6 6 21.3 N 9 17 5 9 1009.4 1007.0 0.0
05/01:00pm 39.5 34.7 -2.6 7 20.9 NE 13 26 7 14 1010.1 1007.6 0.0
05/12:30pm 37.9 34.3 -2.0 8 19.7 SE 7 17 4 9 1010.7 1008.2 0.0
05/12:00pm 38.3 33.5 -0.1 9 19.6 E 15 28 8 15 1011.3 1008.8 0.0
05/11:30am 37.1 32.5 -1.0 9 19.0 ENE 13 26 7 14 1011.8 1009.4 0.0
05/11:00am 36.6 31.4 2.6 12 17.9 NE 19 30 10 16 1012.2 1009.8 0.0
05/10:30am 35.7 32.5 6.9 17 16.1 NE 13 24 7 13 1012.5 1010.1 0.0
05/10:00am 34.9 31.4 7.1 18 15.6 E 15 30 8 16 1012.9 1010.5 0.0
05/09:30am 34.1 31.1 9.4 22 14.3 NE 15 22 8 12 1013.2 1010.8 0.0
05/09:00am 32.7 31.2 10.7 26 12.9 NE 9 17 5 9 1013.3 1010.9 0.0
05/08:30am 31.1 29.0 11.0 29 11.8 NE 13 20 7 11 1013.5 1011.0 0.0
05/08:00am 29.4 26.5 11.0 32 10.7 NE 17 22 9 12 1013.3 1010.9 0.0
05/07:30am 28.1 24.9 11.2 35 9.8 NE 19 24 10 13 1013.0 1010.6 0.0
05/07:00am 26.8 23.7 11.7 39 8.8 NE 19 24 10 13 1012.8 1010.4 0.0
05/06:30am 25.6 24.2 12.1 43 7.8 NE 11 17 6 9 1012.6 1010.2 0.0
05/06:00am 24.7 23.7 12.3 46 7.2 NE 9 13 5 7 1012.3 1009.9 0.0
05/05:30am 24.8 23.1 12.4 46 7.2 NE 13 17 7 9 1011.8 1009.4 0.0
05/05:00am 25.0 23.0 11.6 43 7.7 ENE 13 19 7 10 1011.6 1009.2 0.0
05/04:30am 25.3 22.8 11.1 41 8.1 ENE 15 22 8 12 1011.3 1008.8 0.0
05/04:00am 25.6 22.8 11.4 41 8.2 ENE 17 20 9 11 1011.1 1008.6 0.0
05/03:30am 26.1 24.6 11.8 41 8.3 E 11 15 6 8 1011.1 1008.6 0.0
05/03:00am 26.6 25.1 11.9 40 8.6 NE 11 15 6 8 1010.7 1008.2 0.0
05/02:30am 27.1 23.5 12.0 39 8.8 NNE 22 32 12 17 1010.3 1007.8 0.0
05/02:00am 27.5 24.3 11.9 38 9.1 NNE 20 26 11 14 1010.1 1007.6 0.0
05/01:30am 27.9 24.7 11.9 37 9.4 NNE 20 30 11 16 1010.3 1007.8 0.0
05/01:00am 28.6 24.9 11.6 34 9.9 NNE 22 30 12 16 1010.6 1008.1 0.0
05/12:30am 29.1 26.4 11.6 33 10.2 NNE 17 20 9 11 1010.8 1008.3 0.0
05/12:00am 30.0 26.7 11.5 32 10.9 NNE 20 30 11 16 1010.9 1008.4 0.0
 
Date/Time
EST
Temp
°C
App
Temp
°C
Dew
Point
°C
Rel
Hum
%
Delta-T
°C
Wind Press
QNH
hPa
Press
MSL
hPa
Rain since
9am
mm
Dir  Spd
km/h
Gust
km/h
Spd
kts
Gust
kts
04/11:30pm 30.4 27.2 11.4 31 11.2 NNE 19 26 10 14 1011.1 1008.6 0.0
04/11:00pm 30.9 27.4 8.6 25 12.6 NE 17 22 9 12 1011.2 1008.7 0.0
04/10:30pm 31.9 28.3 8.2 23 13.3 NE 17 24 9 13 1011.1 1008.6 0.0
04/10:00pm 32.4 28.7 8.0 22 13.7 ENE 17 22 9 12 1010.9 1008.4 0.0
04/09:30pm 32.9 28.6 7.0 20 14.3 ENE 19 24 10 13 1010.7 1008.2 0.0
04/09:00pm 33.4 29.0 6.6 19 14.8 ENE 19 24 10 13 1010.5 1008.0 0.0
04/08:30pm 33.9 29.4 7.0 19 15.0 ENE 20 28 11 15 1010.2 1007.7 0.0
04/08:00pm 34.3 30.3 6.6 18 15.4 E 17 24 9 13 1009.8 1007.4 0.0
04/07:30pm 35.0 30.4 6.3 17 15.9 E 20 26 11 14 1009.4 1007.0 0.0
04/07:00pm 35.7 30.8 6.9 17 16.2 E 22 30 12 16 1009.0 1006.6 0.0
04/06:30pm 36.5 30.8 6.6 16 16.7 E 26 37 14 20 1008.9 1006.5 0.0
04/06:00pm 37.3 32.4 5.3 14 17.7 E 20 33 11 18 1008.7 1006.3 0.0
04/05:30pm 38.0 33.3 5.9 14 17.9 ENE 20 28 11 15 1008.6 1006.1 0.0
04/05:00pm 38.3 33.8 6.1 14 18.1 E 19 35 10 19 1008.5 1006.0 0.0
04/04:30pm 38.8 33.6 5.4 13 18.6 E 22 33 12 18 1008.5 1006.0 0.0
04/04:00pm 38.6 33.7 5.3 13 18.5 E 20 35 11 19 1008.5 1006.0 0.0
04/03:30pm 38.7 34.3 6.4 14 18.2 ESE 19 30 10 16 1008.8 1006.4 0.0
04/03:00pm 38.4 33.7 6.2 14 18.1 E 20 32 11 17 1009.1 1006.7 0.0
04/02:30pm 37.0 33.1 7.0 16 16.9 NE 17 24 9 13 1009.6 1007.2 0.0
04/02:00pm 37.4 33.0 7.3 16 17.1 E 20 37 11 20 1010.3 1007.8 0.0
04/01:30pm 36.3 32.3 8.2 18 16.1 NNE 19 26 10 14 1010.8 1008.3 0.0
04/01:00pm 36.2 31.4 7.3 17 16.4 ENE 22 33 12 18 1011.5 1009.0 0.0
04/12:30pm 36.1 32.8 9.6 20 15.5 NNE 17 32 9 17 1012.1 1009.7 0.0
04/12:00pm 34.6 29.7 8.4 20 15.0 ENE 24 35 13 19 1012.8 1010.4 0.0
04/11:30am 33.4 29.7 9.4 23 13.8 NNE 19 30 10 16 1013.2 1010.8 0.0
04/11:00am 32.8 29.3 10.8 26 12.9 ENE 20 39 11 21 1014.0 1011.5 0.0
04/10:30am 31.8 28.1 12.6 31 11.5 ENE 24 33 13 18 1014.5 1012.1 0.0
04/10:00am 31.0 27.7 12.8 32 10.9 ENE 22 35 12 19 1015.0 1012.6 0.0
04/09:30am 29.4 24.8 12.3 34 10.1 NE 28 37 15 20 1015.2 1012.8 0.0
04/09:00am 28.6 24.8 13.7 40 9.0 NE 26 37 14 20 1015.3 1012.9 0.0
04/08:30am 27.8 23.3 13.7 42 8.5 NE 30 39 16 21 1015.3 1012.9 0.0
04/08:00am 27.8 24.3 14.4 43 8.2 NE 26 35 14 19 1015.2 1012.8 0.0
04/07:30am 26.0 23.4 13.8 47 7.3 NE 20 33 11 18 1015.3 1012.9 0.0
04/07:00am 25.1 22.5 13.9 49 6.7 NE 20 26 11 14 1015.3 1012.9 0.0
04/06:30am 24.6 23.1 13.2 49 6.7 ENE 13 19 7 10 1015.3 1012.9 0.0
04/06:00am 23.9 22.3 12.8 49 6.5 ENE 13 17 7 9 1014.9 1012.5 0.0
04/05:30am 23.9 21.5 12.8 49 6.5 ENE 17 24 9 13 1014.4 1011.9 0.0
04/05:00am 24.1 21.8 11.8 46 7.1 ENE 15 20 8 11 1014.0 1011.5 0.0
04/04:30am 24.7 22.2 10.9 42 7.8 ENE 15 24 8 13 1013.7 1011.2 0.0
04/04:00am 25.1 22.4 10.2 39 8.4 ENE 15 20 8 11 1013.3 1010.9 0.0
04/03:30am 25.6 21.6 9.0 35 9.2 ENE 20 26 11 14 1012.9 1010.5 0.0
04/03:00am 26.1 21.3 9.0 34 9.5 NE 24 35 13 19 1012.6 1010.2 0.0
04/02:30am 26.4 22.8 8.4 32 9.9 NE 17 20 9 11 1012.9 1010.5 0.0
04/02:00am 27.0 23.1 10.7 36 9.3 NE 22 32 12 17 1013.1 1010.7 0.0
04/01:30am 27.5 24.3 13.1 41 8.6 NE 22 32 12 17 1013.3 1010.9 0.0
04/01:00am 28.1 24.8 12.8 38 9.1 NE 22 32 12 17 1013.2 1010.8 0.0
04/12:30am 28.6 25.3 12.9 38 9.4 NE 22 32 12 17 1013.3 1010.9 0.0
04/12:00am 29.1 26.1 12.5 36 9.9 NE 20 28 11 15 1013.7 1011.2 0.0
 
Date/Time
EST
Temp
°C
App
Temp
°C
Dew
Point
°C
Rel
Hum
%
Delta-T
°C
Wind Press
QNH
hPa
Press
MSL
hPa
Rain since
9am
mm
Dir  Spd
km/h
Gust
km/h
Spd
kts
Gust
kts
03/11:30pm 30.0 25.4 12.4 34 10.5 NNE 28 35 15 19 1013.6 1011.1 0.0
03/11:00pm 30.7 27.6 11.6 31 11.3 NE 19 24 10 13 1013.6 1011.1 0.0
03/10:30pm 31.3 28.1 10.1 27 12.2 NE 17 20 9 11 1013.2 1010.8 0.0
03/10:00pm 31.9 28.0 8.8 24 13.1 NE 19 26 10 14 1012.9 1010.5 0.0
03/09:30pm 32.5 29.5 9.3 24 13.3 ENE 15 19 8 10 1012.6 1010.2 0.0
03/09:00pm 32.9 30.2 9.0 23 13.7 ENE 13 22 7 12 1012.4 1010.0 0.0
03/08:30pm 33.5 29.7 8.9 22 14.1 ENE 19 26 10 14 1012.3 1009.9 0.0
03/08:00pm 33.9 30.1 9.2 22 14.2 E 19 24 10 13 1012.0 1009.6 0.0
03/07:30pm 34.4 29.6 8.9 21 14.7 E 24 32 13 17 1011.7 1009.3 0.0
03/07:00pm 34.8 30.1 9.3 21 14.8 E 24 30 13 16 1011.4 1008.9 0.0
03/06:30pm 35.5 31.1 9.1 20 15.3 E 22 33 12 18 1011.0 1008.5 0.0
03/06:00pm 36.3 31.5 9.0 19 15.9 E 24 35 13 19 1010.7 1008.2 0.0
03/05:30pm 36.9 31.5 9.5 19 16.1 E 28 35 15 19 1010.6 1008.1 0.0
03/05:00pm 37.4 33.1 10.7 20 16.0 ENE 24 35 13 19 1010.7 1008.2 0.0
03/04:30pm 37.9 33.7 11.1 20 16.1 ENE 24 35 13 19 1010.6 1008.1 0.0
03/04:00pm 36.8 33.1 11.6 22 15.2 E 22 32 12 17 1010.7 1008.2 0.0
03/03:30pm 36.5 32.0 11.3 22 15.1 E 26 43 14 23 1011.0 1008.5 0.0
03/03:00pm 36.8 32.8 12.9 24 14.7 ENE 26 37 14 20 1011.3 1008.8 0.0
03/02:30pm 37.3 32.9 14.0 25 14.6 E 30 43 16 23 1011.7 1009.3 0.0
03/02:00pm 36.0 31.4 13.5 26 13.9 E 30 44 16 24 1012.0 1009.6 0.0
03/01:30pm 35.3 31.1 14.6 29 13.0 E 30 48 16 26 1012.2 1009.8 0.0
03/01:00pm 35.5 30.9 14.7 28 13.1 ENE 32 50 17 27 1012.6 1010.2 0.0
03/12:54pm 35.7 31.2 14.9 29 13.1 ENE 32 50 17 27 1012.6 1010.2 0.0
03/12:30pm 36.5 32.3 15.6 29 13.3 ENE 32 44 17 24 1013.0 1010.6 0.0
03/12:12pm 35.6 31.5 14.8 28 13.1 E 30 48 16 26 1013.2 1010.8 0.0
03/12:00pm 35.7 31.2 15.4 29 12.9 E 33 48 18 26 1013.2 1010.8 0.0
03/11:30am 35.2 30.2 15.0 30 12.7 E 35 48 19 26 1013.7 1011.2 0.0
03/11:01am 35.7 31.6 14.9 29 13.1 ENE 30 48 16 26 1014.0 1011.5 0.0
03/11:00am 36.0 31.6 15.2 29 13.2 ENE 32 48 17 26 1014.0 1011.5 0.0
03/10:30am 35.8 31.1 14.4 27 13.4 E 32 43 17 23 1014.1 1011.6 0.0
03/10:00am 35.2 31.5 13.9 27 13.2 E 26 35 14 19 1013.9 1011.4 0.0
03/09:30am 34.6 32.0 15.0 31 12.3 ENE 22 39 12 21 1013.9 1011.4 0.0
03/09:00am 33.2 30.6 13.8 31 11.9 ENE 20 28 11 15 1014.0 1011.5 0.0
03/08:30am 32.1 29.3 13.3 31 11.4 NE 20 28 11 15 1013.8 1011.3 0.0
03/08:00am 30.6 29.3 15.8 40 9.3 ENE 17 20 9 11 1013.9 1011.4 0.0
03/07:30am 29.5 28.8 16.3 45 8.3 NE 15 22 8 12 1013.8 1011.3 0.0
03/07:00am 28.6 27.2 16.5 48 7.6 NE 19 24 10 13 1013.7 1011.2 0.0
03/06:30am 27.8 26.2 16.1 49 7.3 NE 19 26 10 14 1013.3 1010.9 0.0
03/06:00am 27.3 26.2 16.3 51 6.9 NE 17 20 9 11 1012.9 1010.5 0.0
03/05:30am 27.3 26.2 16.3 51 6.9 ENE 17 20 9 11 1012.4 1010.0 0.0
03/05:00am 27.7 26.1 16.0 49 7.3 NE 19 24 10 13 1012.1 1009.7 0.0
03/04:30am 28.3 26.7 15.9 47 7.7 NE 19 26 10 14 1012.0 1009.6 0.0
03/04:00am 28.6 27.6 15.5 45 8.1 ENE 15 19 8 10 1011.8 1009.4 0.0
03/03:30am 29.2 28.8 15.3 42 8.6 ENE 11 17 6 9 1011.6 1009.2 0.0
03/03:00am 29.5 28.4 15.2 41 8.9 NE 15 28 8 15 1011.3 1008.8 0.0
03/02:30am 29.9 28.8 14.4 38 9.5 NE 13 17 7 9 1011.3 1008.8 0.0
03/02:00am 30.2 27.6 12.1 32 10.7 NE 17 20 9 11 1011.4 1008.9 0.0
03/01:30am 30.1 28.4 11.1 31 11.1 NE 11 17 6 9 1011.6 1009.2 0.0
03/01:00am 29.9 28.1 9.4 28 11.6 NNE 9 11 5 6 1011.8 1009.4 0.0
03/12:30am 30.8 28.5 9.1 26 12.3 NNE 11 13 6 7 1012.1 1009.7 0.0
03/12:00am 31.8 28.7 8.7 24 13.1 NE 15 19 8 10 1012.4 1010.0 0.0
 
Date/Time
EST
Temp
°C
App
Temp
°C
Dew
Point
°C
Rel
Hum
%
Delta-T
°C
Wind Press
QNH
hPa
Press
MSL
hPa
Rain since
9am
mm
Dir  Spd
km/h
Gust
km/h
Spd
kts
Gust
kts
02/11:30pm 32.4 29.6 8.6 23 13.5 NE 13 17 7 9 1012.6 1010.2 0.0
02/11:00pm 32.3 29.7 7.9 22 13.7 NE 11 13 6 7 1012.6 1010.2 0.0
02/10:30pm 33.0 30.4 7.8 21 14.1 NE 11 13 6 7 1012.5 1010.1 0.0
02/10:00pm 34.3 31.8 8.1 20 14.9 NE 11 15 6 8 1012.3 1009.9 0.0
02/09:30pm 35.0 32.0 7.9 19 15.4 ENE 13 15 7 8 1012.0 1009.6 0.0
02/09:00pm 35.5 32.1 7.6 18 15.8 ENE 15 20 8 11 1011.8 1009.4 0.0
02/08:30pm 36.2 32.5 6.4 16 16.6 ENE 15 17 8 9 1011.5 1009.0 0.0
02/08:00pm 36.8 32.5 6.9 16 16.9 ENE 19 22 10 12 1011.2 1008.7 0.0
02/07:30pm 37.4 32.8 6.4 15 17.4 ENE 20 26 11 14 1010.9 1008.4 0.0
02/07:00pm 38.0 32.3 4.8 13 18.2 ENE 24 33 13 18 1010.5 1008.0 0.0
02/06:30pm 38.7 33.9 5.4 13 18.5 E 20 32 11 17 1009.9 1007.5 0.0
02/06:00pm 39.6 32.9 3.7 11 19.6 ENE 28 39 15 21 1009.6 1007.2 0.0
02/05:30pm 39.9 32.7 5.1 12 19.4 E 32 44 17 24 1009.4 1007.0 0.0
02/05:00pm 40.5 33.2 4.3 11 20.0 ENE 32 46 17 25 1009.3 1006.9 0.0
02/04:30pm 40.9 34.8 4.6 11 20.2 ENE 26 43 14 23 1009.0 1006.6 0.0

Other formats

Comma delimited format used in spreadsheet applications
http://www.bom.gov.au/fwo/IDQ60801/IDQ60801.94343.axf

JavaScript Object Notation format (JSON) in row-major order
http://www.bom.gov.au/fwo/IDQ60801/IDQ60801.94343.json

Data quality

Most of these data are generated automatically and are frequently updated. Quality checks on data are not normally performed. It is possible for incorrect values to appear. Refer to information at About Latest Weather Observations and please check the disclaimer before using these data.